sensor_id;sensor_type;location;lat;lon;timestamp;P1;durP1;ratioP1;P2;durP2;ratioP2
11531;SDS011;5822;51.000;5.874;2022-08-21T00:00:24;24.73;;;22.33;;
11531;SDS011;5822;51.000;5.874;2022-08-21T00:02:53;23.67;;;21.50;;
11531;SDS011;5822;51.000;5.874;2022-08-21T00:05:22;22.77;;;20.87;;
11531;SDS011;5822;51.000;5.874;2022-08-21T00:07:48;22.60;;;20.60;;
11531;SDS011;5822;51.000;5.874;2022-08-21T00:10:14;22.90;;;20.83;;
11531;SDS011;5822;51.000;5.874;2022-08-21T00:12:40;23.63;;;21.63;;
11531;SDS011;5822;51.000;5.874;2022-08-21T00:15:07;24.10;;;21.93;;
11531;SDS011;5822;51.000;5.874;2022-08-21T00:17:34;24.07;;;21.93;;
11531;SDS011;5822;51.000;5.874;2022-08-21T00:19:59;23.83;;;21.73;;
11531;SDS011;5822;51.000;5.874;2022-08-21T00:22:25;24.07;;;22.03;;
11531;SDS011;5822;51.000;5.874;2022-08-21T00:24:51;23.67;;;21.67;;
11531;SDS011;5822;51.000;5.874;2022-08-21T00:27:16;23.70;;;21.60;;
11531;SDS011;5822;51.000;5.874;2022-08-21T00:29:42;24.13;;;22.03;;
11531;SDS011;5822;51.000;5.874;2022-08-21T00:32:08;24.10;;;22.00;;
11531;SDS011;5822;51.000;5.874;2022-08-21T00:34:33;23.87;;;21.63;;
11531;SDS011;5822;51.000;5.874;2022-08-21T00:36:59;24.83;;;22.73;;
11531;SDS011;5822;51.000;5.874;2022-08-21T00:39:24;24.27;;;22.17;;
11531;SDS011;5822;51.000;5.874;2022-08-21T00:41:50;24.00;;;21.90;;
11531;SDS011;5822;51.000;5.874;2022-08-21T00:44:15;24.73;;;22.43;;
11531;SDS011;5822;51.000;5.874;2022-08-21T00:46:41;23.17;;;21.07;;
11531;SDS011;5822;51.000;5.874;2022-08-21T00:49:08;23.63;;;21.53;;
11531;SDS011;5822;51.000;5.874;2022-08-21T00:51:38;22.90;;;20.90;;
11531;SDS011;5822;51.000;5.874;2022-08-21T00:54:10;23.93;;;21.73;;
11531;SDS011;5822;51.000;5.874;2022-08-21T00:56:37;24.33;;;22.17;;
11531;SDS011;5822;51.000;5.874;2022-08-21T00:59:03;24.70;;;22.40;;
11531;SDS011;5822;51.000;5.874;2022-08-21T01:01:29;25.40;;;23.17;;
11531;SDS011;5822;51.000;5.874;2022-08-21T01:03:55;24.57;;;22.43;;
11531;SDS011;5822;51.000;5.874;2022-08-21T01:06:21;25.10;;;22.80;;
11531;SDS011;5822;51.000;5.874;2022-08-21T01:08:46;24.87;;;22.50;;
11531;SDS011;5822;51.000;5.874;2022-08-21T01:11:13;24.50;;;22.30;;
11531;SDS011;5822;51.000;5.874;2022-08-21T01:13:40;24.67;;;22.23;;
11531;SDS011;5822;51.000;5.874;2022-08-21T01:16:12;25.53;;;23.03;;
11531;SDS011;5822;51.000;5.874;2022-08-21T01:18:42;25.53;;;23.27;;
11531;SDS011;5822;51.000;5.874;2022-08-21T01:21:10;25.27;;;22.87;;
11531;SDS011;5822;51.000;5.874;2022-08-21T01:23:40;23.87;;;21.83;;
11531;SDS011;5822;51.000;5.874;2022-08-21T01:26:07;24.07;;;22.00;;
11531;SDS011;5822;51.000;5.874;2022-08-21T01:28:44;23.10;;;21.00;;
11531;SDS011;5822;51.000;5.874;2022-08-21T01:31:14;24.43;;;22.23;;
11531;SDS011;5822;51.000;5.874;2022-08-21T01:33:42;23.80;;;21.60;;
11531;SDS011;5822;51.000;5.874;2022-08-21T01:36:08;24.13;;;21.83;;
11531;SDS011;5822;51.000;5.874;2022-08-21T01:38:33;24.30;;;22.10;;
11531;SDS011;5822;51.000;5.874;2022-08-21T01:40:59;25.23;;;22.83;;
11531;SDS011;5822;51.000;5.874;2022-08-21T01:43:25;24.73;;;22.43;;
11531;SDS011;5822;51.000;5.874;2022-08-21T01:45:50;26.10;;;23.87;;
11531;SDS011;5822;51.000;5.874;2022-08-21T01:48:16;25.63;;;23.33;;
11531;SDS011;5822;51.000;5.874;2022-08-21T01:50:42;24.70;;;22.53;;
11531;SDS011;5822;51.000;5.874;2022-08-21T01:53:07;24.77;;;22.47;;
11531;SDS011;5822;51.000;5.874;2022-08-21T01:55:33;25.07;;;22.83;;
11531;SDS011;5822;51.000;5.874;2022-08-21T01:57:59;24.90;;;22.50;;
11531;SDS011;5822;51.000;5.874;2022-08-21T02:00:25;24.67;;;22.57;;
11531;SDS011;5822;51.000;5.874;2022-08-21T02:02:51;26.07;;;23.67;;
11531;SDS011;5822;51.000;5.874;2022-08-21T02:05:18;26.40;;;23.90;;
11531;SDS011;5822;51.000;5.874;2022-08-21T02:07:48;25.20;;;23.00;;
11531;SDS011;5822;51.000;5.874;2022-08-21T02:10:18;25.10;;;22.90;;
11531;SDS011;5822;51.000;5.874;2022-08-21T02:12:46;24.23;;;21.93;;
11531;SDS011;5822;51.000;5.874;2022-08-21T02:15:12;23.87;;;21.77;;
11531;SDS011;5822;51.000;5.874;2022-08-21T02:17:40;23.77;;;21.67;;
11531;SDS011;5822;51.000;5.874;2022-08-21T02:20:18;23.83;;;21.83;;
11531;SDS011;5822;51.000;5.874;2022-08-21T02:22:49;25.20;;;22.90;;
11531;SDS011;5822;51.000;5.874;2022-08-21T02:25:15;26.10;;;23.70;;
11531;SDS011;5822;51.000;5.874;2022-08-21T02:27:42;25.60;;;23.40;;
11531;SDS011;5822;51.000;5.874;2022-08-21T02:30:13;24.37;;;22.10;;
11531;SDS011;5822;51.000;5.874;2022-08-21T02:32:40;23.30;;;21.40;;
11531;SDS011;5822;51.000;5.874;2022-08-21T02:35:07;24.80;;;22.60;;
11531;SDS011;5822;51.000;5.874;2022-08-21T02:37:34;23.70;;;21.63;;
11531;SDS011;5822;51.000;5.874;2022-08-21T02:40:07;25.10;;;22.97;;
11531;SDS011;5822;51.000;5.874;2022-08-21T02:42:35;25.37;;;23.27;;
11531;SDS011;5822;51.000;5.874;2022-08-21T02:45:02;24.93;;;22.80;;
11531;SDS011;5822;51.000;5.874;2022-08-21T02:47:28;24.93;;;22.70;;
11531;SDS011;5822;51.000;5.874;2022-08-21T02:49:54;25.90;;;23.50;;
11531;SDS011;5822;51.000;5.874;2022-08-21T02:52:19;24.63;;;22.23;;
11531;SDS011;5822;51.000;5.874;2022-08-21T02:54:46;24.27;;;22.07;;
11531;SDS011;5822;51.000;5.874;2022-08-21T02:57:12;23.80;;;21.70;;
11531;SDS011;5822;51.000;5.874;2022-08-21T02:59:38;23.33;;;21.17;;
11531;SDS011;5822;51.000;5.874;2022-08-21T03:02:04;24.43;;;22.20;;
11531;SDS011;5822;51.000;5.874;2022-08-21T03:04:29;23.73;;;21.53;;
11531;SDS011;5822;51.000;5.874;2022-08-21T03:06:55;24.33;;;22.23;;
11531;SDS011;5822;51.000;5.874;2022-08-21T03:09:20;24.80;;;22.40;;
11531;SDS011;5822;51.000;5.874;2022-08-21T03:11:46;24.23;;;22.03;;
11531;SDS011;5822;51.000;5.874;2022-08-21T03:14:12;24.00;;;22.00;;
11531;SDS011;5822;51.000;5.874;2022-08-21T03:16:37;23.70;;;21.53;;
11531;SDS011;5822;51.000;5.874;2022-08-21T03:19:03;23.70;;;21.60;;
11531;SDS011;5822;51.000;5.874;2022-08-21T03:21:29;23.70;;;21.47;;
11531;SDS011;5822;51.000;5.874;2022-08-21T03:23:55;23.53;;;21.23;;
11531;SDS011;5822;51.000;5.874;2022-08-21T03:26:20;25.17;;;22.93;;
11531;SDS011;5822;51.000;5.874;2022-08-21T03:28:46;25.00;;;22.80;;
11531;SDS011;5822;51.000;5.874;2022-08-21T03:31:12;25.30;;;23.07;;
11531;SDS011;5822;51.000;5.874;2022-08-21T03:33:37;24.97;;;22.67;;
11531;SDS011;5822;51.000;5.874;2022-08-21T03:36:04;24.63;;;22.47;;
11531;SDS011;5822;51.000;5.874;2022-08-21T03:38:32;24.10;;;21.83;;
11531;SDS011;5822;51.000;5.874;2022-08-21T03:40:59;24.17;;;21.97;;
11531;SDS011;5822;51.000;5.874;2022-08-21T03:43:25;24.63;;;22.43;;
11531;SDS011;5822;51.000;5.874;2022-08-21T03:45:51;25.17;;;22.77;;
11531;SDS011;5822;51.000;5.874;2022-08-21T03:48:17;24.97;;;22.37;;
11531;SDS011;5822;51.000;5.874;2022-08-21T03:50:43;24.00;;;21.57;;
11531;SDS011;5822;51.000;5.874;2022-08-21T03:53:12;23.43;;;21.23;;
11531;SDS011;5822;51.000;5.874;2022-08-21T03:55:38;23.10;;;21.10;;
11531;SDS011;5822;51.000;5.874;2022-08-21T03:58:04;23.77;;;21.60;;
11531;SDS011;5822;51.000;5.874;2022-08-21T04:00:30;23.60;;;21.43;;
11531;SDS011;5822;51.000;5.874;2022-08-21T04:02:55;23.47;;;21.13;;
11531;SDS011;5822;51.000;5.874;2022-08-21T04:05:21;23.23;;;21.07;;
11531;SDS011;5822;51.000;5.874;2022-08-21T04:07:57;23.17;;;21.07;;
11531;SDS011;5822;51.000;5.874;2022-08-21T04:10:24;23.47;;;21.20;;
11531;SDS011;5822;51.000;5.874;2022-08-21T04:12:51;22.97;;;20.97;;
11531;SDS011;5822;51.000;5.874;2022-08-21T04:15:18;24.00;;;21.73;;
11531;SDS011;5822;51.000;5.874;2022-08-21T04:17:44;23.47;;;21.47;;
11531;SDS011;5822;51.000;5.874;2022-08-21T04:20:10;23.70;;;21.40;;
11531;SDS011;5822;51.000;5.874;2022-08-21T04:22:36;23.93;;;21.53;;
11531;SDS011;5822;51.000;5.874;2022-08-21T04:25:01;22.97;;;20.77;;
11531;SDS011;5822;51.000;5.874;2022-08-21T04:27:27;24.23;;;22.13;;
11531;SDS011;5822;51.000;5.874;2022-08-21T04:29:52;23.87;;;21.77;;
11531;SDS011;5822;51.000;5.874;2022-08-21T04:32:22;23.57;;;21.37;;
11531;SDS011;5822;51.000;5.874;2022-08-21T04:34:48;24.50;;;22.17;;
11531;SDS011;5822;51.000;5.874;2022-08-21T04:37:14;23.70;;;21.50;;
11531;SDS011;5822;51.000;5.874;2022-08-21T04:39:40;24.90;;;22.73;;
11531;SDS011;5822;51.000;5.874;2022-08-21T04:42:07;25.10;;;22.93;;
11531;SDS011;5822;51.000;5.874;2022-08-21T04:44:34;25.23;;;23.03;;
11531;SDS011;5822;51.000;5.874;2022-08-21T04:47:00;25.27;;;22.97;;
11531;SDS011;5822;51.000;5.874;2022-08-21T04:49:25;26.87;;;24.57;;
11531;SDS011;5822;51.000;5.874;2022-08-21T04:51:51;25.97;;;23.67;;
11531;SDS011;5822;51.000;5.874;2022-08-21T04:54:18;25.63;;;23.37;;
11531;SDS011;5822;51.000;5.874;2022-08-21T04:56:54;26.03;;;23.60;;
11531;SDS011;5822;51.000;5.874;2022-08-21T04:59:28;25.37;;;22.90;;
11531;SDS011;5822;51.000;5.874;2022-08-21T05:02:08;24.90;;;22.63;;
11531;SDS011;5822;51.000;5.874;2022-08-21T05:04:35;24.80;;;22.70;;
11531;SDS011;5822;51.000;5.874;2022-08-21T05:07:10;26.50;;;24.30;;
11531;SDS011;5822;51.000;5.874;2022-08-21T05:09:39;27.17;;;24.67;;
11531;SDS011;5822;51.000;5.874;2022-08-21T05:12:06;27.03;;;24.60;;
11531;SDS011;5822;51.000;5.874;2022-08-21T05:14:32;26.97;;;24.37;;
11531;SDS011;5822;51.000;5.874;2022-08-21T05:16:58;27.30;;;24.73;;
11531;SDS011;5822;51.000;5.874;2022-08-21T05:19:23;24.73;;;22.60;;
11531;SDS011;5822;51.000;5.874;2022-08-21T05:21:50;24.83;;;22.53;;
11531;SDS011;5822;51.000;5.874;2022-08-21T05:24:16;25.90;;;23.50;;
11531;SDS011;5822;51.000;5.874;2022-08-21T05:26:43;25.77;;;23.30;;
11531;SDS011;5822;51.000;5.874;2022-08-21T05:29:09;25.70;;;23.10;;
11531;SDS011;5822;51.000;5.874;2022-08-21T05:31:35;27.47;;;25.00;;
11531;SDS011;5822;51.000;5.874;2022-08-21T05:34:02;27.03;;;24.63;;
11531;SDS011;5822;51.000;5.874;2022-08-21T05:36:28;28.20;;;25.53;;
11531;SDS011;5822;51.000;5.874;2022-08-21T05:38:54;28.93;;;26.43;;
11531;SDS011;5822;51.000;5.874;2022-08-21T05:41:20;25.67;;;23.27;;
11531;SDS011;5822;51.000;5.874;2022-08-21T05:43:46;26.53;;;24.17;;
11531;SDS011;5822;51.000;5.874;2022-08-21T05:46:11;26.20;;;23.77;;
11531;SDS011;5822;51.000;5.874;2022-08-21T05:48:37;26.57;;;24.13;;
11531;SDS011;5822;51.000;5.874;2022-08-21T05:51:07;25.67;;;23.23;;
11531;SDS011;5822;51.000;5.874;2022-08-21T05:53:34;27.03;;;24.70;;
11531;SDS011;5822;51.000;5.874;2022-08-21T05:56:00;26.60;;;24.20;;
11531;SDS011;5822;51.000;5.874;2022-08-21T05:58:28;27.20;;;24.80;;
11531;SDS011;5822;51.000;5.874;2022-08-21T06:00:55;67.00;;;32.77;;
11531;SDS011;5822;51.000;5.874;2022-08-21T06:03:22;27.03;;;24.47;;
11531;SDS011;5822;51.000;5.874;2022-08-21T06:05:51;25.33;;;23.03;;
11531;SDS011;5822;51.000;5.874;2022-08-21T06:08:18;26.67;;;23.87;;
11531;SDS011;5822;51.000;5.874;2022-08-21T06:10:44;34.30;;;24.60;;
11531;SDS011;5822;51.000;5.874;2022-08-21T06:13:11;32.50;;;25.67;;
11531;SDS011;5822;51.000;5.874;2022-08-21T06:15:37;26.90;;;24.40;;
11531;SDS011;5822;51.000;5.874;2022-08-21T06:18:03;28.03;;;25.57;;
11531;SDS011;5822;51.000;5.874;2022-08-21T06:20:29;27.93;;;25.37;;
11531;SDS011;5822;51.000;5.874;2022-08-21T06:22:55;25.83;;;23.27;;
11531;SDS011;5822;51.000;5.874;2022-08-21T06:25:20;26.07;;;23.73;;
11531;SDS011;5822;51.000;5.874;2022-08-21T06:27:46;25.67;;;23.47;;
11531;SDS011;5822;51.000;5.874;2022-08-21T06:30:12;26.47;;;24.07;;
11531;SDS011;5822;51.000;5.874;2022-08-21T06:32:38;27.00;;;24.47;;
11531;SDS011;5822;51.000;5.874;2022-08-21T06:35:04;27.80;;;25.00;;
11531;SDS011;5822;51.000;5.874;2022-08-21T06:37:31;27.30;;;25.00;;
11531;SDS011;5822;51.000;5.874;2022-08-21T06:39:56;26.97;;;24.67;;
11531;SDS011;5822;51.000;5.874;2022-08-21T06:42:22;27.50;;;25.13;;
11531;SDS011;5822;51.000;5.874;2022-08-21T06:44:48;26.80;;;24.30;;
11531;SDS011;5822;51.000;5.874;2022-08-21T06:47:14;25.83;;;23.50;;
11531;SDS011;5822;51.000;5.874;2022-08-21T06:49:39;26.50;;;24.17;;
11531;SDS011;5822;51.000;5.874;2022-08-21T06:52:11;25.60;;;23.47;;
11531;SDS011;5822;51.000;5.874;2022-08-21T06:54:38;25.83;;;23.63;;
11531;SDS011;5822;51.000;5.874;2022-08-21T06:57:04;25.47;;;23.37;;
11531;SDS011;5822;51.000;5.874;2022-08-21T06:59:30;25.10;;;22.77;;
11531;SDS011;5822;51.000;5.874;2022-08-21T07:01:56;25.27;;;23.07;;
11531;SDS011;5822;51.000;5.874;2022-08-21T07:04:23;25.53;;;23.03;;
11531;SDS011;5822;51.000;5.874;2022-08-21T07:06:48;24.97;;;22.77;;
11531;SDS011;5822;51.000;5.874;2022-08-21T07:09:14;25.40;;;23.03;;
11531;SDS011;5822;51.000;5.874;2022-08-21T07:11:40;25.17;;;23.13;;
11531;SDS011;5822;51.000;5.874;2022-08-21T07:14:06;24.60;;;22.37;;
11531;SDS011;5822;51.000;5.874;2022-08-21T07:16:31;24.07;;;22.07;;
11531;SDS011;5822;51.000;5.874;2022-08-21T07:18:57;25.33;;;23.17;;
11531;SDS011;5822;51.000;5.874;2022-08-21T07:21:23;25.30;;;23.13;;
11531;SDS011;5822;51.000;5.874;2022-08-21T07:23:49;25.60;;;23.53;;
11531;SDS011;5822;51.000;5.874;2022-08-21T07:26:17;25.37;;;23.37;;
11531;SDS011;5822;51.000;5.874;2022-08-21T07:28:45;24.57;;;22.40;;
11531;SDS011;5822;51.000;5.874;2022-08-21T07:31:13;25.23;;;23.13;;
11531;SDS011;5822;51.000;5.874;2022-08-21T07:33:40;25.17;;;23.20;;
11531;SDS011;5822;51.000;5.874;2022-08-21T07:36:06;25.70;;;23.50;;
11531;SDS011;5822;51.000;5.874;2022-08-21T07:38:33;26.10;;;23.77;;
11531;SDS011;5822;51.000;5.874;2022-08-21T07:40:59;24.73;;;22.80;;
11531;SDS011;5822;51.000;5.874;2022-08-21T07:43:26;24.90;;;22.67;;
11531;SDS011;5822;51.000;5.874;2022-08-21T07:45:53;24.67;;;22.73;;
11531;SDS011;5822;51.000;5.874;2022-08-21T07:48:20;23.07;;;21.17;;
11531;SDS011;5822;51.000;5.874;2022-08-21T07:50:46;22.70;;;20.80;;
11531;SDS011;5822;51.000;5.874;2022-08-21T07:53:12;23.60;;;21.50;;
11531;SDS011;5822;51.000;5.874;2022-08-21T07:55:39;22.50;;;20.70;;
11531;SDS011;5822;51.000;5.874;2022-08-21T07:58:04;22.50;;;20.60;;
11531;SDS011;5822;51.000;5.874;2022-08-21T08:00:31;23.90;;;21.70;;
11531;SDS011;5822;51.000;5.874;2022-08-21T08:02:57;25.43;;;23.20;;
11531;SDS011;5822;51.000;5.874;2022-08-21T08:05:25;25.90;;;23.70;;
11531;SDS011;5822;51.000;5.874;2022-08-21T08:07:52;28.43;;;26.03;;
11531;SDS011;5822;51.000;5.874;2022-08-21T08:10:18;26.80;;;24.70;;
11531;SDS011;5822;51.000;5.874;2022-08-21T08:12:45;26.93;;;24.67;;
11531;SDS011;5822;51.000;5.874;2022-08-21T08:15:12;25.30;;;23.10;;
11531;SDS011;5822;51.000;5.874;2022-08-21T08:17:40;25.27;;;23.23;;
11531;SDS011;5822;51.000;5.874;2022-08-21T08:20:06;24.53;;;22.53;;
11531;SDS011;5822;51.000;5.874;2022-08-21T08:22:34;25.37;;;23.20;;
11531;SDS011;5822;51.000;5.874;2022-08-21T08:25:02;26.93;;;24.63;;
11531;SDS011;5822;51.000;5.874;2022-08-21T08:27:29;26.40;;;24.30;;
11531;SDS011;5822;51.000;5.874;2022-08-21T08:29:55;26.97;;;24.63;;
11531;SDS011;5822;51.000;5.874;2022-08-21T08:32:22;27.20;;;24.90;;
11531;SDS011;5822;51.000;5.874;2022-08-21T08:34:48;26.43;;;24.37;;
11531;SDS011;5822;51.000;5.874;2022-08-21T08:37:17;26.87;;;24.57;;
11531;SDS011;5822;51.000;5.874;2022-08-21T08:39:44;27.27;;;25.17;;
11531;SDS011;5822;51.000;5.874;2022-08-21T08:42:13;27.17;;;25.10;;
11531;SDS011;5822;51.000;5.874;2022-08-21T08:47:32;25.53;;;23.43;;
11531;SDS011;5822;51.000;5.874;2022-08-21T08:50:06;26.20;;;24.00;;
11531;SDS011;5822;51.000;5.874;2022-08-21T08:52:36;26.80;;;24.80;;
11531;SDS011;5822;51.000;5.874;2022-08-21T08:55:21;26.37;;;24.37;;
11531;SDS011;5822;51.000;5.874;2022-08-21T08:57:51;25.67;;;23.53;;
11531;SDS011;5822;51.000;5.874;2022-08-21T09:00:19;25.27;;;23.30;;
11531;SDS011;5822;51.000;5.874;2022-08-21T09:02:46;25.47;;;23.43;;
11531;SDS011;5822;51.000;5.874;2022-08-21T09:05:25;26.57;;;24.57;;
11531;SDS011;5822;51.000;5.874;2022-08-21T09:11:00;26.93;;;24.93;;
11531;SDS011;5822;51.000;5.874;2022-08-21T09:13:43;27.23;;;25.20;;
11531;SDS011;5822;51.000;5.874;2022-08-21T09:16:24;26.37;;;24.23;;
11531;SDS011;5822;51.000;5.874;2022-08-21T09:19:36;26.40;;;24.47;;
11531;SDS011;5822;51.000;5.874;2022-08-21T09:24:56;26.40;;;24.20;;
11531;SDS011;5822;51.000;5.874;2022-08-21T09:27:33;26.33;;;24.23;;
11531;SDS011;5822;51.000;5.874;2022-08-21T09:29:59;27.87;;;25.77;;
11531;SDS011;5822;51.000;5.874;2022-08-21T09:32:29;27.07;;;24.80;;
11531;SDS011;5822;51.000;5.874;2022-08-21T09:35:15;38.83;;;36.33;;
11531;SDS011;5822;51.000;5.874;2022-08-21T09:38:00;27.17;;;25.07;;
11531;SDS011;5822;51.000;5.874;2022-08-21T09:40:36;26.80;;;24.47;;
11531;SDS011;5822;51.000;5.874;2022-08-21T09:43:20;27.83;;;25.73;;
11531;SDS011;5822;51.000;5.874;2022-08-21T09:46:00;50.50;;;47.30;;
11531;SDS011;5822;51.000;5.874;2022-08-21T09:48:43;33.23;;;30.73;;
11531;SDS011;5822;51.000;5.874;2022-08-21T09:51:13;27.97;;;25.77;;
11531;SDS011;5822;51.000;5.874;2022-08-21T09:53:43;27.43;;;25.43;;
11531;SDS011;5822;51.000;5.874;2022-08-21T09:56:18;30.07;;;27.87;;
11531;SDS011;5822;51.000;5.874;2022-08-21T09:59:27;25.30;;;23.20;;
11531;SDS011;5822;51.000;5.874;2022-08-21T10:01:57;26.80;;;24.50;;
11531;SDS011;5822;51.000;5.874;2022-08-21T10:04:33;24.87;;;22.87;;
11531;SDS011;5822;51.000;5.874;2022-08-21T10:09:34;39.07;;;36.60;;
11531;SDS011;5822;51.000;5.874;2022-08-21T10:25:01;26.13;;;24.23;;
11531;SDS011;5822;51.000;5.874;2022-08-21T10:36:21;26.57;;;24.53;;
11531;SDS011;5822;51.000;5.874;2022-08-21T10:44:14;31.17;;;29.07;;
11531;SDS011;5822;51.000;5.874;2022-08-21T10:49:37;25.43;;;23.53;;
11531;SDS011;5822;51.000;5.874;2022-08-21T10:52:30;32.93;;;30.53;;
11531;SDS011;5822;51.000;5.874;2022-08-21T11:00:32;27.53;;;25.53;;
11531;SDS011;5822;51.000;5.874;2022-08-21T11:03:04;22.83;;;21.13;;
11531;SDS011;5822;51.000;5.874;2022-08-21T11:05:38;23.17;;;21.37;;
11531;SDS011;5822;51.000;5.874;2022-08-21T11:08:15;30.60;;;28.43;;
11531;SDS011;5822;51.000;5.874;2022-08-21T11:10:55;37.30;;;34.73;;
11531;SDS011;5822;51.000;5.874;2022-08-21T11:19:22;24.20;;;22.13;;
11531;SDS011;5822;51.000;5.874;2022-08-21T11:24:40;25.07;;;23.27;;
11531;SDS011;5822;51.000;5.874;2022-08-21T11:27:50;36.17;;;33.90;;
11531;SDS011;5822;51.000;5.874;2022-08-21T11:30:17;41.53;;;39.10;;
11531;SDS011;5822;51.000;5.874;2022-08-21T11:38:27;23.40;;;21.67;;
11531;SDS011;5822;51.000;5.874;2022-08-21T11:43:47;27.80;;;25.80;;
11531;SDS011;5822;51.000;5.874;2022-08-21T11:46:28;36.00;;;33.70;;
11531;SDS011;5822;51.000;5.874;2022-08-21T11:57:21;24.03;;;22.03;;
11531;SDS011;5822;51.000;5.874;2022-08-21T12:00:00;23.20;;;21.43;;
11531;SDS011;5822;51.000;5.874;2022-08-21T12:02:35;25.17;;;23.40;;
11531;SDS011;5822;51.000;5.874;2022-08-21T12:05:06;37.17;;;34.87;;
11531;SDS011;5822;51.000;5.874;2022-08-21T12:10:06;40.57;;;38.13;;
11531;SDS011;5822;51.000;5.874;2022-08-21T12:12:41;42.40;;;39.90;;
11531;SDS011;5822;51.000;5.874;2022-08-21T12:18:03;30.30;;;28.20;;
11531;SDS011;5822;51.000;5.874;2022-08-21T12:20:35;30.93;;;28.70;;
11531;SDS011;5822;51.000;5.874;2022-08-21T12:25:42;39.83;;;37.43;;
11531;SDS011;5822;51.000;5.874;2022-08-21T12:28:23;42.10;;;39.60;;
11531;SDS011;5822;51.000;5.874;2022-08-21T12:30:50;43.00;;;40.50;;
11531;SDS011;5822;51.000;5.874;2022-08-21T12:36:13;31.73;;;29.60;;
11531;SDS011;5822;51.000;5.874;2022-08-21T12:38:47;29.87;;;27.83;;
11531;SDS011;5822;51.000;5.874;2022-08-21T12:41:25;36.47;;;34.27;;
11531;SDS011;5822;51.000;5.874;2022-08-21T12:44:10;36.50;;;34.40;;
11531;SDS011;5822;51.000;5.874;2022-08-21T12:46:43;41.57;;;39.07;;
11531;SDS011;5822;51.000;5.874;2022-08-21T12:50:06;39.53;;;37.03;;
11531;SDS011;5822;51.000;5.874;2022-08-21T12:52:23;30.73;;;28.53;;
11531;SDS011;5822;51.000;5.874;2022-08-21T12:54:54;31.57;;;29.47;;
11531;SDS011;5822;51.000;5.874;2022-08-21T12:57:23;23.47;;;21.63;;
11531;SDS011;5822;51.000;5.874;2022-08-21T12:59:54;26.13;;;24.23;;
11531;SDS011;5822;51.000;5.874;2022-08-21T13:02:23;26.17;;;24.23;;
11531;SDS011;5822;51.000;5.874;2022-08-21T13:04:53;29.90;;;27.87;;
11531;SDS011;5822;51.000;5.874;2022-08-21T13:07:29;25.50;;;23.70;;
11531;SDS011;5822;51.000;5.874;2022-08-21T13:09:59;27.37;;;25.57;;
11531;SDS011;5822;51.000;5.874;2022-08-21T13:12:27;30.67;;;28.77;;
11531;SDS011;5822;51.000;5.874;2022-08-21T13:14:55;33.13;;;30.97;;
11531;SDS011;5822;51.000;5.874;2022-08-21T13:17:23;38.17;;;35.57;;
11531;SDS011;5822;51.000;5.874;2022-08-21T13:19:58;37.77;;;35.37;;
11531;SDS011;5822;51.000;5.874;2022-08-21T13:22:26;39.60;;;37.13;;
11531;SDS011;5822;51.000;5.874;2022-08-21T13:24:52;40.80;;;38.40;;
11531;SDS011;5822;51.000;5.874;2022-08-21T13:27:23;28.40;;;26.40;;
11531;SDS011;5822;51.000;5.874;2022-08-21T13:30:11;30.57;;;28.47;;
11531;SDS011;5822;51.000;5.874;2022-08-21T13:32:50;33.30;;;31.20;;
11531;SDS011;5822;51.000;5.874;2022-08-21T13:35:21;39.80;;;37.30;;
11531;SDS011;5822;51.000;5.874;2022-08-21T13:37:50;39.40;;;37.00;;
11531;SDS011;5822;51.000;5.874;2022-08-21T13:40:23;40.50;;;37.80;;
11531;SDS011;5822;51.000;5.874;2022-08-21T13:42:52;29.10;;;27.10;;
11531;SDS011;5822;51.000;5.874;2022-08-21T13:45:29;30.47;;;28.47;;
11531;SDS011;5822;51.000;5.874;2022-08-21T13:47:57;33.20;;;31.00;;
11531;SDS011;5822;51.000;5.874;2022-08-21T13:50:26;31.38;;;29.23;;
11531;SDS011;5822;51.000;5.874;2022-08-21T13:53:00;36.73;;;34.43;;
11531;SDS011;5822;51.000;5.874;2022-08-21T13:55:36;38.33;;;35.95;;
11531;SDS011;5822;51.000;5.874;2022-08-21T13:58:05;41.13;;;38.73;;
11531;SDS011;5822;51.000;5.874;2022-08-21T14:00:32;41.05;;;38.65;;
11531;SDS011;5822;51.000;5.874;2022-08-21T14:03:08;29.55;;;27.50;;
11531;SDS011;5822;51.000;5.874;2022-08-21T14:05:37;30.05;;;27.95;;
11531;SDS011;5822;51.000;5.874;2022-08-21T14:08:12;30.50;;;28.50;;
11531;SDS011;5822;51.000;5.874;2022-08-21T14:10:50;38.80;;;36.50;;
11531;SDS011;5822;51.000;5.874;2022-08-21T14:21:31;30.88;;;28.80;;
11531;SDS011;5822;51.000;5.874;2022-08-21T14:24:10;32.75;;;30.50;;
11531;SDS011;5822;51.000;5.874;2022-08-21T14:26:55;31.30;;;29.17;;
11531;SDS011;5822;51.000;5.874;2022-08-21T14:29:26;38.22;;;35.83;;
11531;SDS011;5822;51.000;5.874;2022-08-21T14:31:57;36.90;;;34.70;;
11531;SDS011;5822;51.000;5.874;2022-08-21T14:34:25;41.70;;;39.17;;
11531;SDS011;5822;51.000;5.874;2022-08-21T14:36:52;30.10;;;28.00;;
11531;SDS011;5822;51.000;5.874;2022-08-21T14:39:17;29.45;;;27.30;;
11531;SDS011;5822;51.000;5.874;2022-08-21T14:41:43;32.80;;;30.30;;
11531;SDS011;5822;51.000;5.874;2022-08-21T14:44:13;32.30;;;30.02;;
11531;SDS011;5822;51.000;5.874;2022-08-21T14:46:40;37.70;;;35.45;;
11531;SDS011;5822;51.000;5.874;2022-08-21T14:49:06;38.58;;;36.15;;
11531;SDS011;5822;51.000;5.874;2022-08-21T14:51:32;40.45;;;38.15;;
11531;SDS011;5822;51.000;5.874;2022-08-21T14:53:58;28.70;;;26.75;;
11531;SDS011;5822;51.000;5.874;2022-08-21T14:56:24;29.52;;;27.52;;
11531;SDS011;5822;51.000;5.874;2022-08-21T14:58:51;31.05;;;28.88;;
11531;SDS011;5822;51.000;5.874;2022-08-21T15:01:18;34.03;;;31.73;;
11531;SDS011;5822;51.000;5.874;2022-08-21T15:03:45;40.65;;;38.25;;
11531;SDS011;5822;51.000;5.874;2022-08-21T15:06:13;36.53;;;34.30;;
11531;SDS011;5822;51.000;5.874;2022-08-21T15:08:39;39.97;;;37.78;;
11531;SDS011;5822;51.000;5.874;2022-08-21T15:11:05;27.45;;;25.45;;
11531;SDS011;5822;51.000;5.874;2022-08-21T15:13:32;26.02;;;24.15;;
11531;SDS011;5822;51.000;5.874;2022-08-21T15:15:58;27.25;;;25.35;;
11531;SDS011;5822;51.000;5.874;2022-08-21T15:18:24;30.50;;;28.30;;
11531;SDS011;5822;51.000;5.874;2022-08-21T15:20:51;35.83;;;33.55;;
11531;SDS011;5822;51.000;5.874;2022-08-21T15:23:17;37.08;;;34.67;;
11531;SDS011;5822;51.000;5.874;2022-08-21T15:25:44;38.75;;;36.38;;
11531;SDS011;5822;51.000;5.874;2022-08-21T15:28:12;26.15;;;24.13;;
11531;SDS011;5822;51.000;5.874;2022-08-21T15:30:40;28.25;;;25.90;;
11531;SDS011;5822;51.000;5.874;2022-08-21T15:33:06;26.50;;;24.58;;
11531;SDS011;5822;51.000;5.874;2022-08-21T15:35:32;34.30;;;32.08;;
11531;SDS011;5822;51.000;5.874;2022-08-21T15:37:59;37.90;;;35.50;;
11531;SDS011;5822;51.000;5.874;2022-08-21T15:40:25;40.75;;;38.13;;
11531;SDS011;5822;51.000;5.874;2022-08-21T15:42:52;29.65;;;27.52;;
11531;SDS011;5822;51.000;5.874;2022-08-21T15:45:23;27.00;;;25.02;;
11531;SDS011;5822;51.000;5.874;2022-08-21T15:47:49;27.48;;;25.50;;
11531;SDS011;5822;51.000;5.874;2022-08-21T15:50:16;29.35;;;27.35;;
11531;SDS011;5822;51.000;5.874;2022-08-21T15:52:42;35.15;;;32.85;;
11531;SDS011;5822;51.000;5.874;2022-08-21T15:55:09;35.83;;;33.42;;
11531;SDS011;5822;51.000;5.874;2022-08-21T15:57:36;26.23;;;24.33;;
11531;SDS011;5822;51.000;5.874;2022-08-21T16:00:06;25.77;;;23.67;;
11531;SDS011;5822;51.000;5.874;2022-08-21T16:02:53;26.83;;;24.83;;
11531;SDS011;5822;51.000;5.874;2022-08-21T16:05:22;28.58;;;26.48;;
11531;SDS011;5822;51.000;5.874;2022-08-21T16:07:48;36.33;;;33.95;;
11531;SDS011;5822;51.000;5.874;2022-08-21T16:10:15;29.25;;;26.85;;
11531;SDS011;5822;51.000;5.874;2022-08-21T16:12:47;23.02;;;21.13;;
11531;SDS011;5822;51.000;5.874;2022-08-21T16:15:20;23.75;;;21.58;;